createdAt,value
2018-09-28T00:01:54.186Z,6.67
2018-09-28T00:06:56.338Z,6.77
2018-09-28T00:11:58.491Z,7.30
2018-09-28T00:17:00.645Z,6.83
2018-09-28T00:22:02.785Z,6.87
2018-09-28T00:27:04.938Z,6.93
2018-09-28T00:32:07.070Z,7.93
2018-09-28T00:37:09.233Z,7.00
2018-09-28T00:42:11.390Z,7.23
2018-09-28T00:47:13.517Z,7.70
2018-09-28T00:52:15.646Z,14.20
2018-09-28T00:57:18.097Z,8.47
2018-09-28T01:02:20.235Z,8.27
2018-09-28T01:07:22.370Z,7.70
2018-09-28T01:12:24.542Z,9.63
2018-09-28T01:17:26.674Z,8.03
2018-09-28T01:22:28.801Z,7.40
2018-09-28T01:27:37.680Z,7.70
2018-09-28T01:32:39.821Z,7.70
2018-09-28T01:37:41.937Z,7.23
2018-09-28T01:42:44.069Z,7.40
2018-09-28T01:47:46.274Z,7.17
2018-09-28T01:52:48.413Z,7.33
2018-09-28T01:57:50.566Z,7.53
2018-09-28T02:02:52.705Z,7.90
2018-09-28T02:07:54.853Z,8.67
2018-09-28T02:12:57.008Z,7.73
2018-09-28T02:18:06.149Z,7.90
2018-09-28T02:23:08.293Z,6.90
2018-09-28T02:28:10.431Z,7.43
2018-09-28T02:33:12.566Z,6.97
2018-09-28T02:38:14.724Z,7.73
2018-09-28T02:43:16.902Z,7.90
2018-09-28T02:48:19.046Z,7.43
2018-09-28T02:53:21.174Z,8.20
2018-09-28T02:58:23.342Z,8.10
2018-09-28T03:03:25.483Z,7.87
2018-09-28T03:08:27.630Z,7.73
2018-09-28T03:13:29.773Z,7.20
2018-09-28T03:18:31.906Z,7.00
2018-09-28T03:23:34.165Z,7.33
2018-09-28T03:28:36.310Z,7.73
2018-09-28T03:33:38.454Z,6.93
2018-09-28T03:38:40.634Z,7.93
2018-09-28T03:43:42.769Z,7.83
2018-09-28T03:48:44.914Z,7.10
2018-09-28T03:53:47.066Z,7.90
2018-09-28T03:58:49.247Z,7.87
2018-09-28T04:03:51.349Z,7.70
2018-09-28T04:08:53.494Z,7.60
2018-09-28T04:13:55.666Z,7.63
2018-09-28T04:18:57.837Z,7.77
2018-09-28T04:24:00.011Z,7.77
2018-09-28T04:29:02.177Z,7.20
2018-09-28T04:34:04.346Z,6.90
2018-09-28T04:39:06.582Z,7.47
2018-09-28T04:44:08.805Z,7.27
2018-09-28T04:49:10.991Z,7.80
2018-09-28T04:54:13.158Z,7.43
2018-09-28T04:59:15.326Z,8.13
2018-09-28T05:04:17.474Z,7.50
2018-09-28T05:09:19.605Z,8.10
2018-09-28T05:14:21.941Z,7.93
2018-09-28T05:19:24.196Z,8.77
2018-09-28T05:24:26.319Z,8.00
2018-09-28T05:29:28.469Z,8.57
2018-09-28T05:34:30.906Z,8.23
2018-09-28T05:39:33.196Z,9.00
2018-09-28T05:44:35.265Z,9.20
2018-09-28T05:49:37.421Z,12.33
2018-09-28T05:54:39.590Z,8.50
2018-09-28T05:59:47.427Z,13.80
2018-09-28T06:04:55.330Z,12.73
2018-09-28T06:09:57.486Z,8.90
2018-09-28T06:14:59.664Z,8.13
2018-09-28T06:20:01.830Z,7.70
2018-09-28T06:25:04.005Z,7.87
2018-09-28T06:30:06.259Z,7.60
2018-09-28T06:35:08.410Z,7.17
2018-09-28T06:40:10.594Z,7.93
2018-09-28T06:45:12.746Z,6.57
2018-09-28T06:50:14.949Z,6.87
2018-09-28T06:55:17.106Z,7.20
2018-09-28T07:00:19.334Z,7.60
2018-09-28T07:05:21.413Z,6.93
2018-09-28T07:10:23.557Z,7.70
2018-09-28T07:15:25.718Z,7.90
2018-09-28T07:20:27.905Z,8.40
2018-09-28T07:25:30.022Z,9.77
2018-09-28T07:30:32.166Z,10.90
2018-09-28T07:35:34.302Z,10.90
2018-09-28T07:40:36.477Z,11.43
2018-09-28T07:45:38.642Z,11.37
2018-09-28T07:50:40.798Z,10.50
2018-09-28T07:55:42.976Z,9.03
2018-09-28T08:00:45.095Z,11.30
2018-09-28T08:05:47.278Z,10.13
2018-09-28T08:10:49.540Z,9.93
2018-09-28T08:15:51.789Z,10.10
2018-09-28T08:20:53.938Z,10.60
2018-09-28T08:25:56.082Z,9.70
2018-09-28T08:30:58.222Z,9.83
2018-09-28T08:36:00.373Z,10.00
2018-09-28T08:41:02.502Z,10.20
2018-09-28T08:46:04.660Z,10.53
2018-09-28T08:51:07.126Z,7.47
2018-09-28T08:56:09.337Z,12.23
2018-09-28T09:01:11.486Z,11.90
2018-09-28T09:06:13.617Z,12.37
2018-09-28T09:11:15.750Z,14.03
2018-09-28T09:16:17.902Z,12.70
2018-09-28T09:21:20.032Z,12.87
2018-09-28T09:26:22.173Z,13.30
2018-09-28T09:31:24.349Z,13.33
2018-09-28T09:36:26.531Z,13.43
2018-09-28T09:41:28.642Z,14.03
2018-09-28T09:46:30.789Z,14.23
2018-09-28T09:51:33.033Z,14.00
2018-09-28T09:56:35.173Z,14.40
2018-09-28T10:01:42.982Z,14.00
2018-09-28T10:06:45.106Z,14.50
2018-09-28T10:11:47.234Z,15.00
2018-09-28T10:16:49.358Z,13.70
2018-09-28T10:21:51.486Z,16.50
2018-09-28T10:26:53.652Z,16.20
2018-09-28T10:31:55.773Z,15.40
2018-09-28T10:36:57.910Z,15.83
2018-09-28T10:42:00.081Z,14.97
2018-09-28T10:47:02.245Z,15.80
2018-09-28T10:52:04.479Z,15.30
2018-09-28T10:57:07.764Z,12.17
2018-09-28T11:02:09.856Z,10.57
2018-09-28T11:07:11.987Z,11.33
2018-09-28T11:12:14.122Z,10.77
2018-09-28T11:17:16.273Z,9.20
2018-09-28T11:22:18.418Z,8.93
2018-09-28T11:27:20.572Z,11.00
2018-09-28T11:32:22.718Z,9.93
2018-09-28T11:37:24.866Z,9.13
2018-09-28T11:42:27.014Z,9.33
2018-09-28T11:47:29.283Z,7.00
2018-09-28T11:52:31.529Z,6.90
2018-09-28T11:57:33.666Z,8.20
2018-09-28T12:02:35.832Z,8.17
2018-09-28T12:07:37.970Z,7.63
2018-09-28T12:12:40.145Z,8.03
2018-09-28T12:17:42.292Z,8.67
2018-09-28T12:22:44.438Z,13.63
2018-09-28T12:27:46.624Z,7.97
2018-09-28T12:32:48.913Z,8.20
2018-09-28T12:37:53.013Z,6.90
2018-09-28T12:42:55.313Z,7.30
2018-09-28T12:47:57.479Z,7.23
2018-09-28T12:52:59.626Z,8.73
2018-09-28T12:58:01.784Z,8.03
2018-09-28T13:03:03.930Z,8.40
2018-09-28T13:08:06.150Z,10.00
2018-09-28T13:13:08.257Z,10.33
2018-09-28T13:18:10.413Z,9.10
2018-09-28T13:23:12.705Z,8.47
2018-09-28T13:28:14.858Z,8.70
2018-09-28T13:33:16.998Z,7.20
2018-09-28T13:38:19.180Z,5.27
2018-09-28T13:43:21.321Z,5.80
2018-09-28T13:48:23.523Z,6.37
2018-09-28T13:53:25.582Z,5.43
2018-09-28T13:58:27.725Z,4.87
2018-09-28T14:03:29.865Z,4.87
2018-09-28T14:08:32.009Z,6.10
2018-09-28T14:13:34.177Z,6.00
2018-09-28T14:18:36.379Z,7.07
2018-09-28T14:23:38.458Z,6.63
2018-09-28T14:28:40.679Z,8.17
2018-09-28T14:33:42.909Z,7.20
2018-09-28T14:38:45.064Z,6.47
2018-09-28T14:43:47.206Z,8.23
2018-09-28T14:48:49.571Z,9.20
2018-09-28T14:53:51.541Z,9.93
2018-09-28T14:58:53.725Z,11.40
2018-09-28T15:03:56.086Z,12.07
2018-09-28T15:08:58.230Z,10.33
2018-09-28T15:14:00.402Z,7.10
2018-09-28T15:19:02.756Z,6.27
2018-09-28T15:24:05.035Z,6.10
2018-09-28T15:29:07.446Z,4.70
2018-09-28T15:34:10.114Z,4.67
2018-09-28T15:39:13.170Z,4.30
2018-09-28T15:44:15.370Z,4.03
2018-09-28T15:49:17.608Z,4.73
2018-09-28T15:54:19.890Z,4.13
2018-09-28T15:59:22.085Z,4.70
2018-09-28T16:04:24.535Z,4.27
2018-09-28T16:09:26.730Z,4.20
2018-09-28T16:14:28.893Z,5.20
2018-09-28T16:19:31.100Z,5.60
2018-09-28T16:24:33.774Z,5.50
2018-09-28T16:29:35.934Z,6.10
2018-09-28T16:34:38.188Z,5.20
2018-09-28T16:39:40.399Z,5.33
2018-09-28T16:44:42.605Z,4.70
2018-09-28T16:49:44.818Z,4.47
2018-09-28T16:54:46.967Z,4.43
2018-09-28T16:59:49.126Z,4.57
2018-09-28T17:04:51.343Z,4.17
2018-09-28T17:09:53.528Z,4.60
2018-09-28T17:14:55.769Z,4.10
2018-09-28T17:19:57.997Z,4.30
2018-09-28T17:25:00.201Z,3.60
2018-09-28T17:30:02.464Z,4.07
2018-09-28T17:35:04.821Z,3.40
2018-09-28T17:40:07.592Z,3.23
2018-09-28T17:45:09.862Z,5.60
2018-09-28T17:50:12.066Z,2.90
2018-09-28T17:55:14.238Z,2.77
2018-09-28T18:00:16.466Z,2.80
2018-09-28T18:05:18.766Z,2.40
2018-09-28T18:10:20.969Z,2.77
2018-09-28T18:15:23.146Z,2.13
2018-09-28T18:20:25.322Z,2.63
2018-09-28T18:25:27.450Z,3.23
2018-09-28T18:30:29.629Z,2.73
2018-09-28T18:35:41.259Z,4.33
2018-09-28T18:40:43.897Z,2.60
2018-09-28T18:45:46.861Z,2.80
2018-09-28T18:50:48.997Z,3.10
2018-09-28T18:55:51.165Z,2.10
2018-09-28T19:00:53.445Z,2.10
2018-09-28T19:05:55.712Z,2.37
2018-09-28T19:10:57.785Z,1.70
2018-09-28T19:15:59.930Z,1.90
2018-09-28T19:21:02.101Z,2.50
2018-09-28T19:26:04.403Z,2.37
2018-09-28T19:31:06.561Z,2.13
2018-09-28T19:36:08.751Z,2.00
2018-09-28T19:41:10.918Z,1.90
2018-09-28T19:46:13.108Z,2.17
2018-09-28T19:51:15.270Z,2.83
2018-09-28T19:56:17.424Z,2.27
2018-09-28T20:01:19.573Z,2.83
2018-09-28T20:06:21.781Z,2.40
2018-09-28T20:11:23.918Z,2.03
2018-09-28T20:16:26.085Z,2.03
2018-09-28T20:21:28.598Z,2.50
2018-09-28T20:26:30.750Z,2.37
2018-09-28T20:31:32.946Z,2.37
2018-09-28T20:36:35.107Z,2.47
2018-09-28T20:41:37.301Z,1.80
2018-09-28T20:46:39.466Z,2.10
2018-09-28T20:51:42.456Z,2.10
2018-09-28T20:56:44.618Z,2.10
2018-09-28T21:01:46.809Z,1.90
2018-09-28T21:06:48.957Z,2.40
2018-09-28T21:11:51.134Z,2.43
2018-09-28T21:16:53.274Z,3.40
2018-09-28T21:21:55.413Z,2.93
2018-09-28T21:26:57.549Z,2.43
2018-09-28T21:31:59.697Z,2.43
2018-09-28T21:37:01.845Z,2.50
2018-09-28T21:42:03.986Z,2.93
2018-09-28T21:47:06.197Z,2.10
2018-09-28T21:52:08.343Z,3.20
2018-09-28T21:57:10.481Z,2.37
2018-09-28T22:02:12.638Z,2.80
2018-09-28T22:07:14.895Z,2.57
2018-09-28T22:12:17.050Z,2.60
2018-09-28T22:17:19.226Z,2.77
2018-09-28T22:22:21.385Z,2.60
2018-09-28T22:27:23.653Z,3.23
2018-09-28T22:32:25.802Z,2.67
2018-09-28T22:37:27.929Z,3.53
2018-09-28T22:42:30.098Z,2.70
2018-09-28T22:47:32.269Z,2.50
2018-09-28T22:52:34.558Z,3.10
2018-09-28T22:57:36.946Z,3.07
2018-09-28T23:07:48.030Z,3.10
2018-09-28T23:12:50.202Z,3.73
2018-09-28T23:17:52.347Z,2.50
2018-09-28T23:22:54.506Z,2.33
2018-09-28T23:27:56.658Z,2.70
2018-09-28T23:32:58.839Z,2.77
2018-09-28T23:38:00.970Z,2.53
2018-09-28T23:43:03.194Z,2.83
2018-09-28T23:48:05.604Z,2.50
2018-09-28T23:53:07.746Z,2.07
2018-09-28T23:58:09.914Z,3.30
